KMHL/MHL METAR and TAF weather

Enter ICAO airport designator
Station Type Date Time Source
KMHL METAR 2019/02/16 17:35 UTC NOAA

KMHL 161735Z AUTO 08005KT 10SM CLR M06/M11 A3005 RMK AO2


Station Type Date Time Source
KMHL Decoded METAR 2019/02/16 17:35 UTC NOAA

Station name not available
Feb 16, 2019 - 12:35 PM EST / 2019.02.16 1735 UTC
Wind: from the E (080 degrees) at 6 MPH (5 KT):0
Visibility: 10 mile(s):0
Sky conditions: clear
Temperature: 21 F (-6 C)
Windchill: 14 F (-10 C):1
Dew Point: 12 F (-11 C)
Relative Humidity: 67%
Pressure (altimeter): 30.05 in. Hg (1017 hPa)
ob: KMHL 161735Z AUTO 08005KT 10SM CLR M06/M11 A3005 RMK AO2
cycle: 17

Station Type Date Time Source
KMHL TAF UTC NOAA

Error!


Example: see airport list